Time;durP1;ratioP1;P1;durP2;ratioP2;P2;SDS_P1;SDS_P2;PMS_P1;PMS_P2;Temp;Humidity;BMP_temperature;BMP_pressure;BME280_temperature;BME280_humidity;BME280_pressure;Samples;Min_cycle;Max_cycle;Signal;HPM_P1;HPM_P2
2022/06/27 00:01:10;;;;;;;3.70;2.57;;;23.70;99.90;;;;;;5029355;28;20190;-67
2022/06/27 00:03:36;;;;;;;3.53;2.70;;;23.70;99.90;;;;;;5028553;28;20214;-67
2022/06/27 00:06:01;;;;;;;2.73;2.53;;;23.70;99.90;;;;;;5028654;28;20605;-67
2022/06/27 00:08:27;;;;;;;4.60;2.53;;;23.70;99.90;;;;;;5027894;28;20176;-67
2022/06/27 00:10:53;;;;;;;2.77;2.57;;;23.70;99.90;;;;;;5028438;28;20313;-68
2022/06/27 00:13:19;;;;;;;3.40;2.57;;;23.70;99.90;;;;;;5028803;28;20638;-68
2022/06/27 00:15:44;;;;;;;2.30;2.10;;;23.70;99.90;;;;;;5029208;28;20265;-69
2022/06/27 00:18:10;;;;;;;4.00;2.60;;;23.70;99.90;;;;;;5027835;28;20202;-69
2022/06/27 00:20:36;;;;;;;1.93;1.73;;;23.80;99.90;;;;;;5020532;28;20178;-69
2022/06/27 00:23:02;;;;;;;2.43;1.93;;;23.90;99.90;;;;;;5028648;28;20325;-69
2022/06/27 00:25:27;;;;;;;2.27;2.07;;;23.90;99.90;;;;;;5028250;28;20636;-68
2022/06/27 00:27:53;;;;;;;3.00;2.33;;;23.90;99.90;;;;;;5027948;28;20254;-69
2022/06/27 00:30:19;;;;;;;2.33;1.87;;;23.80;99.90;;;;;;5047005;28;20597;-69
2022/06/27 00:32:45;;;;;;;2.30;2.10;;;23.80;99.90;;;;;;5048262;28;20272;-69
2022/06/27 00:35:11;;;;;;;2.13;1.93;;;23.80;99.90;;;;;;5047869;28;20409;-69
2022/06/27 00:37:37;;;;;;;6.30;2.10;;;23.80;99.90;;;;;;5048037;28;20171;-69
2022/06/27 00:40:04;;;;;;;2.67;2.47;;;23.70;99.90;;;;;;5047510;28;20171;-70
2022/06/27 00:42:30;;;;;;;7.77;2.10;;;23.70;99.90;;;;;;5047694;28;20244;-69
2022/06/27 00:44:55;;;;;;;2.50;2.20;;;23.70;99.90;;;;;;5048233;28;20460;-69
2022/06/27 00:47:21;;;;;;;3.23;2.30;;;23.70;99.90;;;;;;5047999;28;20689;-69
2022/06/27 00:49:47;;;;;;;6.33;2.00;;;23.80;99.90;;;;;;5047559;28;20179;-69
2022/06/27 00:52:14;;;;;;;3.10;2.33;;;23.70;99.90;;;;;;5033189;28;20233;-68
2022/06/27 00:54:42;;;;;;;8.20;2.83;;;23.80;99.90;;;;;;5032247;28;20183;-69
2022/06/27 00:57:11;;;;;;;7.03;3.30;;;23.60;99.90;;;;;;5031838;28;20860;-69
2022/06/27 00:59:37;;;;;;;4.23;3.83;;;23.50;99.90;;;;;;5031913;28;20911;-69
2022/06/27 01:02:04;;;;;;;5.77;5.23;;;23.30;99.90;;;;;;5032461;28;20417;-68
2022/06/27 01:04:30;;;;;;;6.90;5.10;;;22.90;99.90;;;;;;5031582;28;20200;-67
2022/06/27 01:06:56;;;;;;;5.30;4.90;;;23.00;99.90;;;;;;5032179;28;20759;-67
2022/06/27 01:09:23;;;;;;;7.13;5.23;;;22.80;99.90;;;;;;5031756;28;20410;-67
2022/06/27 01:11:50;;;;;;;5.97;5.47;;;22.70;1.00;;;;;;5032031;28;20403;-67
2022/06/27 01:14:17;;;;;;;6.47;5.87;;;22.60;1.00;;;;;;5031961;28;21016;-67
2022/06/27 01:16:43;;;;;;;4.30;3.90;;;22.50;1.00;;;;;;5032257;28;20628;-67
2022/06/27 01:19:14;;;;;;;8.70;5.23;;;22.30;1.00;;;;;;5013104;28;20521;-67
2022/06/27 01:21:45;;;;;;;6.47;4.63;;;22.00;1.00;;;;;;5012200;28;20180;-67
2022/06/27 01:24:11;;;;;;;7.70;3.90;;;21.70;99.90;;;;;;5011885;28;20490;-66
2022/06/27 01:26:37;;;;;;;6.20;4.70;;;21.70;99.90;;;;;;5012134;28;20461;-67
2022/06/27 01:29:04;;;;;;;4.20;3.90;;;21.80;99.90;;;;;;5027070;28;20174;-67
2022/06/27 01:31:31;;;;;;;4.60;3.17;;;21.90;99.90;;;;;;5051739;28;20520;-67
2022/06/27 01:33:57;;;;;;;4.80;2.87;;;21.90;99.90;;;;;;5050269;28;20440;-66
2022/06/27 01:39:12;;;;;;;2.63;2.43;;;21.80;99.90;;;;;;5050441;28;20458;-66
2022/06/27 01:41:43;;;;;;;4.43;2.90;;;21.70;99.90;;;;;;5051543;28;20406;-66
2022/06/27 01:44:10;;;;;;;4.67;3.27;;;21.80;99.90;;;;;;5051212;28;20464;-66
2022/06/27 01:46:41;;;;;;;2.77;2.20;;;21.80;99.90;;;;;;5051500;28;20464;-66
2022/06/27 01:49:08;;;;;;;3.07;1.80;;;21.80;4.70;;;;;;5050581;28;20405;-66
2022/06/27 01:51:34;;;;;;;2.30;1.80;;;21.80;1.00;;;;;;5040278;28;20422;-66
2022/06/27 01:54:00;;;;;;;2.97;1.77;;;21.70;1.00;;;;;;5030687;28;20442;-66
2022/06/27 01:56:25;;;;;;;4.03;2.00;;;21.70;1.00;;;;;;5022953;28;20407;-66
2022/06/27 01:58:52;;;;;;;2.60;1.70;;;21.70;1.00;;;;;;5031240;28;20190;-66
2022/06/27 02:01:18;;;;;;;2.57;1.57;;;21.80;1.00;;;;;;5031563;28;20269;-66
2022/06/27 02:03:44;;;;;;;2.60;1.40;;;21.80;1.00;;;;;;5030109;28;20473;-65
2022/06/27 02:06:11;;;;;;;2.57;1.70;;;21.70;1.00;;;;;;5031905;28;20179;-65
2022/06/27 02:08:45;;;;;;;2.37;1.03;;;21.60;1.00;;;;;;5036354;28;20168;-66
2022/06/27 02:11:12;;;;;;;2.10;1.30;;;21.40;1.00;;;;;;5038718;28;20478;-66
2022/06/27 02:13:38;;;;;;;3.37;1.50;;;21.40;1.00;;;;;;5037626;28;20462;-66
2022/06/27 02:16:10;;;;;;;6.33;1.00;;;21.30;1.00;;;;;;5034645;28;20494;-66
2022/06/27 02:18:37;;;;;;;2.10;1.73;;;21.40;1.00;;;;;;5017173;28;20234;-66
2022/06/27 02:21:03;;;;;;;3.40;1.10;;;21.20;1.00;;;;;;5011732;28;20441;-66
2022/06/27 02:23:28;;;;;;;6.63;1.00;;;21.10;1.00;;;;;;5011011;28;20946;-66
2022/06/27 02:25:56;;;;;;;2.13;1.00;;;20.90;99.90;;;;;;5011087;28;20490;-66
2022/06/27 02:28:23;;;;;;;2.50;1.03;;;21.00;99.90;;;;;;5015175;28;20176;-65
2022/06/27 02:30:49;;;;;;;2.57;1.20;;;20.70;99.90;;;;;;5050975;28;20408;-66
2022/06/27 02:33:15;;;;;;;2.67;1.23;;;20.90;99.90;;;;;;5050194;28;20429;-66
2022/06/27 02:35:43;;;;;;;1.40;1.00;;;20.60;1.00;;;;;;5051115;28;20398;-66
2022/06/27 02:38:11;;;;;;;3.23;1.00;;;20.90;99.90;;;;;;5050305;28;20221;-66
2022/06/27 02:40:42;;;;;;;3.30;1.10;;;21.10;99.90;;;;;;5049708;28;20404;-66
2022/06/27 02:43:08;;;;;;;2.50;1.00;;;21.20;99.90;;;;;;5050744;28;20422;-66
2022/06/27 02:45:36;;;;;;;5.97;1.47;;;21.30;1.00;;;;;;5050740;28;20492;-66
2022/06/27 02:48:02;;;;;;;9.80;1.30;;;21.30;1.00;;;;;;5050466;28;20496;-66
2022/06/27 02:50:33;;;;;;;3.13;1.10;;;21.20;1.00;;;;;;5048184;28;20484;-66
2022/06/27 02:53:02;;;;;;;6.57;1.57;;;21.20;1.00;;;;;;5031562;28;20406;-66
2022/06/27 02:55:37;;;;;;;6.40;1.47;;;21.30;1.00;;;;;;5009368;28;20415;-66
2022/06/27 02:58:16;;;;;;;4.80;1.53;;;21.30;1.00;;;;;;5011668;28;20406;-66
2022/06/27 03:00:42;;;;;;;12.10;1.80;;;21.40;1.00;;;;;;5011695;28;20499;-66
2022/06/27 03:03:11;;;;;;;3.57;1.20;;;21.40;1.00;;;;;;5010794;28;20415;-67
2022/06/27 03:06:04;;;;;;;8.17;1.47;;;21.50;1.00;;;;;;5011318;28;20480;-66
2022/06/27 03:08:40;;;;;;;10.73;1.60;;;21.40;1.00;;;;;;5010458;28;20494;-66
2022/06/27 03:11:07;;;;;;;7.10;1.47;;;21.40;1.00;;;;;;5011003;28;20399;-66
2022/06/27 03:13:33;;;;;;;3.53;1.10;;;21.50;1.00;;;;;;5011913;28;20446;-66
2022/06/27 03:15:59;;;;;;;6.20;1.97;;;21.50;1.00;;;;;;5010900;28;20778;-66
2022/06/27 03:18:25;;;;;;;12.33;2.40;;;21.50;1.00;;;;;;4994535;28;20419;-67
2022/06/27 03:20:50;;;;;;;26.63;3.23;;;21.50;1.00;;;;;;5017731;28;20659;-66
2022/06/27 03:23:17;;;;;;;15.13;3.27;;;21.50;1.00;;;;;;5010433;28;20206;-66
2022/06/27 03:25:42;;;;;;;15.63;2.07;;;21.60;1.00;;;;;;5009795;28;20180;-66
2022/06/27 03:28:08;;;;;;;17.67;2.67;;;21.60;1.00;;;;;;5010780;28;20438;-66
2022/06/27 03:30:34;;;;;;;3.73;1.10;;;21.60;1.00;;;;;;5049854;28;20167;-67
2022/06/27 03:33:00;;;;;;;12.63;1.57;;;21.50;1.00;;;;;;5049701;28;20195;-67
2022/06/27 03:35:26;;;;;;;3.27;1.40;;;21.50;1.00;;;;;;5049728;28;20474;-66
2022/06/27 03:37:52;;;;;;;6.70;1.40;;;21.50;1.00;;;;;;5049243;28;20274;-68
2022/06/27 03:40:17;;;;;;;2.47;1.27;;;21.50;1.00;;;;;;5049292;28;20178;-67
2022/06/27 03:42:43;;;;;;;7.20;2.00;;;21.50;1.00;;;;;;5049197;28;20647;-67
2022/06/27 03:45:10;;;;;;;3.63;1.60;;;21.50;1.00;;;;;;5049900;28;20244;-67
2022/06/27 03:47:53;;;;;;;19.63;3.30;;;21.50;1.00;;;;;;5049666;28;20252;-68
2022/06/27 03:50:20;;;;;;;18.13;3.10;;;21.60;1.00;;;;;;5047971;28;20406;-68
2022/06/27 03:52:46;;;;;;;17.53;3.37;;;21.60;1.00;;;;;;5029689;28;20516;-67
2022/06/27 03:55:13;;;;;;;24.13;2.63;;;21.70;1.00;;;;;;5027369;28;20402;-67
2022/06/27 03:57:47;;;;;;;4.67;1.37;;;21.70;1.00;;;;;;5028517;28;20398;-67
2022/06/27 04:00:13;;;;;;;10.70;1.90;;;21.70;1.00;;;;;;5029082;28;20395;-66
2022/06/27 04:02:39;;;;;;;19.70;3.00;;;21.70;1.00;;;;;;5028874;28;20469;-67
2022/06/27 04:05:05;;;;;;;9.83;1.70;;;21.80;1.00;;;;;;5029030;28;20528;-67
2022/06/27 04:07:31;;;;;;;3.60;1.50;;;21.60;1.00;;;;;;5029105;28;20548;-67
2022/06/27 04:09:57;;;;;;;7.20;2.20;;;21.70;1.00;;;;;;5026269;28;20509;-67
2022/06/27 04:12:23;;;;;;;4.30;1.73;;;21.70;1.00;;;;;;5028427;28;20215;-66
2022/06/27 04:14:49;;;;;;;8.80;2.33;;;21.70;1.00;;;;;;5028822;28;20914;-67
2022/06/27 04:17:15;;;;;;;2.37;1.50;;;21.80;1.00;;;;;;5028561;28;20513;-67
2022/06/27 04:19:40;;;;;;;15.63;1.97;;;22.10;1.00;;;;;;5028306;28;20229;-67
2022/06/27 04:22:08;;;;;;;4.93;1.77;;;22.10;1.00;;;;;;5028796;28;20246;-67
2022/06/27 04:24:35;;;;;;;28.00;3.63;;;22.30;1.00;;;;;;5027706;28;20211;-67
2022/06/27 04:27:00;;;;;;;8.43;1.47;;;22.60;99.90;;;;;;5028300;28;20398;-67
2022/06/27 04:29:26;;;;;;;9.33;1.83;;;22.60;99.90;;;;;;5039560;28;20414;-67
2022/06/27 04:31:52;;;;;;;10.53;2.20;;;22.70;99.90;;;;;;5048090;28;20162;-66
2022/06/27 04:34:18;;;;;;;10.40;1.67;;;22.80;99.90;;;;;;5048273;28;20194;-67
2022/06/27 04:36:45;;;;;;;12.50;2.20;;;22.90;99.90;;;;;;5048647;28;20587;-66
2022/06/27 04:39:15;;;;;;;24.87;3.70;;;23.00;99.90;;;;;;5047450;28;20178;-67
2022/06/27 04:41:44;;;;;;;6.90;2.10;;;23.00;99.90;;;;;;5031471;28;20708;-67
2022/06/27 04:44:11;;;;;;;18.27;2.87;;;23.00;99.90;;;;;;5006698;28;21003;-67
2022/06/27 04:46:38;;;;;;;8.57;1.70;;;22.90;99.90;;;;;;5008930;28;20422;-67
2022/06/27 04:49:04;;;;;;;3.77;1.70;;;23.20;99.90;;;;;;4995813;28;20518;-67
2022/06/27 04:51:31;;;;;;;6.40;1.93;;;23.40;99.90;;;;;;4989064;28;20420;-66
2022/06/27 04:53:57;;;;;;;2.10;1.70;;;23.40;99.90;;;;;;4987758;28;20475;-66
2022/06/27 04:56:23;;;;;;;6.23;3.17;;;23.30;99.90;;;;;;4979737;28;20506;-66
2022/06/27 04:58:48;;;;;;;8.63;2.40;;;23.30;99.90;;;;;;4986321;28;20618;-66
2022/06/27 05:01:14;;;;;;;6.07;2.67;;;23.20;99.90;;;;;;4986520;28;20665;-67
2022/06/27 05:03:40;;;;;;;16.37;3.00;;;23.00;99.90;;;;;;4986342;28;20626;-68
2022/06/27 05:06:05;;;;;;;8.37;2.23;;;23.00;99.90;;;;;;4986390;28;20169;-64
2022/06/27 05:08:32;;;;;;;5.83;1.60;;;23.00;99.90;;;;;;4985641;28;20161;-65
2022/06/27 05:10:58;;;;;;;4.37;1.80;;;22.90;99.90;;;;;;4986342;28;20162;-66
2022/06/27 05:13:24;;;;;;;12.93;3.00;;;22.70;99.90;;;;;;4986801;28;20444;-65
2022/06/27 05:15:50;;;;;;;17.37;2.53;;;22.70;99.90;;;;;;4985957;28;20439;-66
2022/06/27 05:18:15;;;;;;;8.90;2.50;;;23.00;99.90;;;;;;4975375;28;20170;-65
2022/06/27 05:20:44;;;;;;;9.80;2.57;;;23.00;99.90;;;;;;4966815;28;20416;-66
2022/06/27 05:23:10;;;;;;;9.27;2.03;;;22.90;99.90;;;;;;4966492;28;20199;-67
2022/06/27 05:25:36;;;;;;;4.50;1.70;;;23.20;99.90;;;;;;4966365;28;20448;-66
2022/06/27 05:28:03;;;;;;;15.20;1.90;;;23.30;99.90;;;;;;4966857;28;20220;-66
2022/06/27 05:30:30;;;;;;;2.70;1.57;;;23.20;99.90;;;;;;4966583;28;20212;-66
2022/06/27 05:32:56;;;;;;;14.17;2.67;;;23.40;99.90;;;;;;4967206;28;20431;-65
2022/06/27 05:35:22;;;;;;;27.33;2.43;;;23.60;99.90;;;;;;4966354;28;20716;-66
2022/06/27 05:37:50;;;;;;;3.40;1.27;;;23.60;99.90;;;;;;4948764;28;20512;-66
2022/06/27 05:40:16;;;;;;;4.97;1.40;;;23.60;99.90;;;;;;4968309;28;20472;-65
2022/06/27 05:42:42;;;;;;;1.90;1.20;;;23.60;99.90;;;;;;4969680;28;20984;-67
2022/06/27 05:45:10;;;;;;;6.00;1.53;;;23.30;99.90;;;;;;4969893;28;20540;-68
2022/06/27 05:47:36;;;;;;;7.60;1.50;;;23.60;99.90;;;;;;4969140;28;20784;-68
2022/06/27 05:50:04;;;;;;;5.73;1.80;;;23.60;99.90;;;;;;4969694;28;20584;-67
2022/06/27 05:52:30;;;;;;;5.77;1.70;;;24.10;99.90;;;;;;4988379;28;20494;-67
2022/06/27 05:54:56;;;;;;;6.30;1.60;;;24.40;99.90;;;;;;4989081;28;20436;-66
2022/06/27 05:57:25;;;;;;;37.27;4.27;;;24.10;99.90;;;;;;4988611;28;20448;-67
2022/06/27 05:59:53;;;;;;;28.30;4.60;;;24.20;99.90;;;;;;4987932;28;20550;-67
2022/06/27 06:02:20;;;;;;;11.53;2.60;;;24.40;99.90;;;;;;4988011;28;20499;-66
2022/06/27 06:04:46;;;;;;;13.40;4.03;;;24.30;99.90;;;;;;4988378;28;20509;-66
2022/06/27 06:07:13;;;;;;;18.70;4.23;;;24.50;99.90;;;;;;4988498;28;20975;-66
2022/06/27 06:09:38;;;;;;;6.37;2.10;;;24.70;99.90;;;;;;4988528;28;20311;-67
2022/06/27 06:12:06;;;;;;;7.10;3.03;;;24.90;99.90;;;;;;4988482;28;20499;-67
2022/06/27 06:14:32;;;;;;;5.00;2.93;;;24.90;99.90;;;;;;4989254;28;20458;-68
2022/06/27 06:16:58;;;;;;;10.33;2.63;;;25.10;99.90;;;;;;4988391;28;20506;-67
2022/06/27 06:19:24;;;;;;;9.13;2.13;;;25.30;99.90;;;;;;4979232;28;20567;-68
2022/06/27 06:21:49;;;;;;;8.00;1.70;;;25.30;99.90;;;;;;4988825;28;20203;-69
2022/06/27 06:24:15;;;;;;;9.53;1.87;;;25.30;99.90;;;;;;4986477;28;20469;-68
2022/06/27 06:26:41;;;;;;;3.83;1.80;;;25.20;99.90;;;;;;4979459;28;20176;-69
2022/06/27 06:29:18;;;;;;;7.63;2.30;;;25.50;99.90;;;;;;4979923;28;20220;-69
2022/06/27 06:31:45;;;;;;;11.90;3.27;;;25.60;99.90;;;;;;4979057;28;20407;-69
2022/06/27 06:34:12;;;;;;;15.57;2.80;;;25.80;99.90;;;;;;4977510;28;20442;-69
2022/06/27 06:36:39;;;;;;;7.73;1.93;;;26.00;99.90;;;;;;4977257;28;20500;-68
2022/06/27 06:39:06;;;;;;;19.87;3.73;;;25.80;99.90;;;;;;4980670;28;20432;-68
2022/06/27 06:41:32;;;;;;;8.80;2.30;;;25.70;99.90;;;;;;4984032;28;20474;-69
2022/06/27 06:43:59;;;;;;;3.73;2.20;;;25.30;99.90;;;;;;4982229;28;20452;-68
2022/06/27 06:46:27;;;;;;;8.97;2.70;;;24.90;99.90;;;;;;4994665;28;20407;-70
2022/06/27 06:48:58;;;;;;;9.33;2.53;;;25.10;99.90;;;;;;4989696;28;20493;-70
2022/06/27 06:51:24;;;;;;;6.00;2.03;;;25.60;99.90;;;;;;4990172;28;20491;-67
2022/06/27 06:53:50;;;;;;;9.77;1.80;;;25.90;99.90;;;;;;4990384;28;20442;-71
2022/06/27 06:56:16;;;;;;;8.20;1.53;;;26.10;99.90;;;;;;4990244;28;20450;-70
2022/06/27 06:58:42;;;;;;;3.17;1.70;;;26.10;99.90;;;;;;4988676;28;20439;-71
2022/06/27 07:01:08;;;;;;;12.73;2.50;;;25.90;99.90;;;;;;4990052;28;20264;-70
2022/06/27 07:03:34;;;;;;;7.07;2.13;;;26.30;99.90;;;;;;4989994;28;20681;-70
2022/06/27 07:06:01;;;;;;;3.27;1.90;;;26.70;99.90;;;;;;4990584;28;20415;-71
2022/06/27 07:08:28;;;;;;;7.50;2.10;;;27.00;99.90;;;;;;4989628;28;20430;-71
2022/06/27 07:10:54;;;;;;;14.97;3.03;;;27.10;99.90;;;;;;4990298;28;20454;-70
2022/06/27 07:13:20;;;;;;;16.03;2.83;;;27.30;99.90;;;;;;4990475;28;20479;-70
2022/06/27 07:15:47;;;;;;;17.97;3.40;;;27.20;99.90;;;;;;4990389;28;20165;-71
2022/06/27 07:18:13;;;;;;;6.10;2.07;;;27.30;99.90;;;;;;4979535;28;20288;-71
2022/06/27 07:20:39;;;;;;;15.20;2.37;;;27.00;99.90;;;;;;4971126;28;20467;-70
2022/06/27 07:23:06;;;;;;;46.87;5.53;;;27.10;99.90;;;;;;4971176;28;20433;-69
2022/06/27 07:25:35;;;;;;;21.77;3.43;;;27.00;99.90;;;;;;4970510;28;20557;-70
2022/06/27 07:28:01;;;;;;;14.10;2.83;;;26.70;99.90;;;;;;4970458;28;20496;-71
2022/06/27 07:30:27;;;;;;;23.77;3.40;;;27.00;99.90;;;;;;5008581;28;20418;-70
2022/06/27 07:32:52;;;;;;;12.03;2.30;;;27.30;99.90;;;;;;5010047;28;20187;-71
2022/06/27 07:35:18;;;;;;;6.80;1.93;;;27.50;99.90;;;;;;5009438;28;20437;-70
2022/06/27 07:37:51;;;;;;;2.03;1.07;;;26.90;99.90;;;;;;5009755;28;20203;-70
2022/06/27 07:40:22;;;;;;;3.77;2.33;;;26.30;99.90;;;;;;5008978;28;20180;-71
2022/06/27 07:42:50;;;;;;;4.50;2.17;;;26.30;99.90;;;;;;5008893;28;20423;-70
2022/06/27 07:45:18;;;;;;;9.23;3.63;;;26.30;99.90;;;;;;5009515;28;20609;-71
2022/06/27 07:47:44;;;;;;;10.13;3.50;;;26.00;99.90;;;;;;4991335;28;20411;-70
2022/06/27 07:50:10;;;;;;;12.13;2.93;;;26.30;99.90;;;;;;5008730;28;20498;-69
2022/06/27 07:55:23;;;;;;;3.80;1.40;;;27.20;99.90;;;;;;4981562;28;20275;-70
2022/06/27 07:57:52;;;;;;;6.77;2.10;;;27.40;99.90;;;;;;4988739;28;20474;-71
2022/06/27 08:00:18;;;;;;;25.73;3.13;;;27.20;99.90;;;;;;4989534;28;20924;-70
2022/06/27 08:02:44;;;;;;;12.83;2.77;;;27.70;99.90;;;;;;4988924;28;20435;-70
2022/06/27 08:05:10;;;;;;;19.60;3.83;;;27.90;99.90;;;;;;4989064;28;20459;-71
2022/06/27 08:07:37;;;;;;;5.90;2.20;;;27.80;99.90;;;;;;4989217;28;20179;-71
2022/06/27 08:10:04;;;;;;;18.83;2.90;;;27.80;99.90;;;;;;4988865;28;20310;-70
2022/06/27 08:12:31;;;;;;;18.47;3.60;;;27.70;99.90;;;;;;4989029;28;20424;-70
2022/06/27 08:14:56;;;;;;;2.67;1.50;;;28.10;99.90;;;;;;4989691;28;20400;-71
2022/06/27 08:17:24;;;;;;;8.03;2.53;;;28.20;99.90;;;;;;4986488;28;20425;-70
2022/06/27 08:19:50;;;;;;;6.10;3.00;;;28.10;99.90;;;;;;4969716;28;20271;-71
2022/06/27 08:22:16;;;;;;;54.73;6.20;;;28.30;99.90;;;;;;4969776;28;20937;-70
2022/06/27 08:24:42;;;;;;;15.37;3.60;;;28.50;99.90;;;;;;4969546;28;20209;-71
2022/06/27 08:27:08;;;;;;;15.43;3.23;;;28.60;99.90;;;;;;4968831;28;20173;-70
2022/06/27 08:29:34;;;;;;;24.00;4.00;;;28.90;99.90;;;;;;4993594;28;20493;-70
2022/06/27 08:32:00;;;;;;;7.97;1.93;;;28.70;99.90;;;;;;5009397;28;20464;-70
2022/06/27 08:34:26;;;;;;;4.03;1.67;;;28.70;99.90;;;;;;5008439;28;20508;-70
2022/06/27 08:36:52;;;;;;;3.43;1.87;;;27.20;99.90;;;;;;5008711;28;20163;-69
2022/06/27 08:39:18;;;;;;;9.20;3.57;;;27.00;99.90;;;;;;5008483;28;20204;-70
2022/06/27 08:41:47;;;;;;;16.50;3.93;;;27.40;99.90;;;;;;5008656;28;20407;-70
2022/06/27 08:44:14;;;;;;;15.43;4.20;;;28.00;99.90;;;;;;5008928;28;20450;-70
2022/06/27 08:46:41;;;;;;;11.30;2.47;;;28.50;99.90;;;;;;5009181;28;20749;-70
2022/06/27 08:49:08;;;;;;;9.97;3.00;;;28.50;99.90;;;;;;5007754;28;20501;-70
2022/06/27 08:51:34;;;;;;;7.30;3.33;;;28.60;99.90;;;;;;4997935;28;20878;-69
2022/06/27 08:54:00;;;;;;;7.77;3.10;;;28.40;99.90;;;;;;4989309;28;20455;-70
2022/06/27 08:56:29;;;;;;;13.40;3.30;;;28.60;99.90;;;;;;4981030;28;20701;-71
2022/06/27 08:58:58;;;;;;;11.07;3.93;;;28.70;99.90;;;;;;4988509;28;20474;-69
2022/06/27 09:01:24;;;;;;;5.73;2.67;;;28.40;99.90;;;;;;4988868;28;20415;-70
2022/06/27 09:04:04;;;;;;;3.60;2.63;;;28.10;99.90;;;;;;4988543;28;20497;-70
2022/06/27 09:06:32;;;;;;;4.83;2.93;;;27.90;99.90;;;;;;4971528;28;20446;-70
2022/06/27 09:09:08;;;;;;;15.80;3.53;;;28.10;99.90;;;;;;4987798;28;20439;-70
2022/06/27 09:11:42;;;;;;;2.90;2.47;;;28.20;99.90;;;;;;4989226;28;20457;-70
2022/06/27 09:14:31;;;;;;;15.90;3.20;;;28.50;99.90;;;;;;4991952;28;20470;-70
2022/06/27 09:17:02;;;;;;;17.33;4.83;;;28.60;99.90;;;;;;4997803;23;20565;-69
2022/06/27 09:19:54;;;;;;;7.13;3.77;;;29.00;99.90;;;;;;4957199;29;20800;-69
2022/06/27 09:22:23;;;;;;;13.80;4.53;;;29.10;99.90;;;;;;4957901;29;20398;-69
2022/06/27 09:25:13;;;;;;;15.83;4.00;;;28.90;99.90;;;;;;4957567;29;20456;-69
2022/06/27 09:27:50;;;;;;;8.63;2.37;;;28.80;99.90;;;;;;4939197;29;20476;-69
2022/06/27 09:30:18;;;;;;;39.27;6.10;;;28.20;99.90;;;;;;4992059;28;20415;-68
2022/06/27 09:32:44;;;;;;;7.33;2.87;;;27.80;99.90;;;;;;4995746;28;20418;-69
2022/06/27 09:35:26;;;;;;;13.80;3.20;;;28.10;99.90;;;;;;4994887;28;20416;-69
2022/06/27 09:37:54;;;;;;;3.67;2.10;;;28.50;99.90;;;;;;4995222;28;20488;-69
2022/06/27 09:40:24;;;;;;;4.07;1.90;;;28.70;99.90;;;;;;4994742;28;20489;-68
2022/06/27 09:42:53;;;;;;;7.60;1.90;;;28.40;99.90;;;;;;4996469;28;20415;-70
2022/06/27 09:45:22;;;;;;;8.23;3.47;;;28.30;99.90;;;;;;4995093;28;20549;-69
2022/06/27 09:47:49;;;;;;;18.40;3.47;;;28.60;99.90;;;;;;4994588;28;20451;-69
2022/06/27 09:50:15;;;;;;;23.77;3.20;;;28.60;99.90;;;;;;4995633;28;20403;-69
2022/06/27 09:52:41;;;;;;;19.93;3.10;;;28.50;99.90;;;;;;4976401;28;20437;-69
2022/06/27 09:55:09;;;;;;;6.77;2.33;;;28.60;99.90;;;;;;4976352;28;20833;-69
2022/06/27 09:57:35;;;;;;;8.70;2.13;;;28.60;99.90;;;;;;4976929;28;20443;-69
2022/06/27 10:00:06;;;;;;;3.23;1.53;;;28.80;99.90;;;;;;4960485;28;20428;-69
2022/06/27 10:02:32;;;;;;;2.67;1.77;;;28.70;99.90;;;;;;4977400;28;20407;-69
2022/06/27 10:04:59;;;;;;;9.93;2.63;;;28.20;99.90;;;;;;4976261;28;20456;-69
2022/06/27 10:07:25;;;;;;;3.97;2.37;;;28.30;99.90;;;;;;4977491;28;20552;-69
2022/06/27 10:09:54;;;;;;;13.53;2.37;;;28.50;99.90;;;;;;4977740;28;20490;-69
2022/06/27 10:12:31;;;;;;;21.80;3.00;;;28.40;99.90;;;;;;4980557;28;20415;-70
2022/06/27 10:15:12;;;;;;;12.77;2.30;;;28.00;99.90;;;;;;4980390;28;20499;-69
2022/06/27 10:17:45;;;;;;;5.30;2.00;;;28.20;99.90;;;;;;4980891;28;20456;-69
2022/06/27 10:20:16;;;;;;;8.37;2.30;;;28.50;99.90;;;;;;4987186;28;20415;-69
2022/06/27 10:22:42;;;;;;;13.30;3.10;;;28.60;99.90;;;;;;5002749;28;20455;-68
2022/06/27 10:25:26;;;;;;;6.13;1.83;;;28.40;99.90;;;;;;5006308;28;20447;-69
2022/06/27 10:28:10;;;;;;;5.07;1.70;;;28.60;99.90;;;;;;5004659;28;20492;-68
2022/06/27 10:30:45;;;;;;;2.20;1.50;;;28.70;99.90;;;;;;4953462;29;20405;-68
2022/06/27 10:33:23;;;;;;;10.60;2.30;;;28.50;99.90;;;;;;4952573;29;20450;-68
2022/06/27 10:35:55;;;;;;;9.83;2.80;;;28.20;99.90;;;;;;4952391;29;20528;-69
2022/06/27 10:38:27;;;;;;;5.43;2.37;;;28.50;99.90;;;;;;4951796;29;20439;-68
2022/06/27 10:40:55;;;;;;;1.90;1.40;;;28.50;99.90;;;;;;4934095;29;20533;-68
2022/06/27 10:43:35;;;;;;;7.77;2.20;;;28.20;99.90;;;;;;4935069;29;20514;-68
2022/06/27 10:46:10;;;;;;;3.13;1.40;;;27.70;99.90;;;;;;4951977;29;20922;-68
2022/06/27 10:48:41;;;;;;;7.43;2.17;;;27.60;99.90;;;;;;4950780;29;20495;-71
2022/06/27 10:51:18;;;;;;;8.20;2.67;;;27.30;99.90;;;;;;4959054;28;20492;-68
2022/06/27 10:53:51;;;;;;;2.57;1.73;;;27.40;99.90;;;;;;4970487;28;20431;-68
2022/06/27 10:56:29;;;;;;;6.83;2.17;;;27.80;99.90;;;;;;4970890;28;20504;-69
2022/06/27 10:58:55;;;;;;;3.07;1.53;;;28.10;99.90;;;;;;4970769;28;20401;-69
2022/06/27 11:01:21;;;;;;;4.47;2.03;;;28.00;99.90;;;;;;4971526;28;20413;-69
2022/06/27 11:03:48;;;;;;;7.10;2.47;;;27.70;99.90;;;;;;4970744;28;20522;-69
2022/06/27 11:06:14;;;;;;;10.30;2.40;;;27.70;99.90;;;;;;4971484;28;20251;-68
2022/06/27 11:08:43;;;;;;;18.40;2.60;;;27.50;99.90;;;;;;4970496;28;20443;-69
2022/06/27 11:11:16;;;;;;;20.50;3.23;;;27.70;99.90;;;;;;4971007;28;20412;-69
2022/06/27 11:13:53;;;;;;;3.10;1.70;;;27.90;99.90;;;;;;4971811;28;20409;-69
2022/06/27 11:16:39;;;;;;;5.43;1.70;;;27.90;99.90;;;;;;4971235;28;20476;-69
2022/06/27 11:21:51;;;;;;;7.13;1.73;;;28.30;99.90;;;;;;4990768;28;20454;-68
2022/06/27 11:24:16;;;;;;;7.10;1.80;;;28.10;99.90;;;;;;4990037;28;20501;-67
2022/06/27 11:26:46;;;;;;;3.90;2.20;;;27.90;99.90;;;;;;4990363;28;20695;-69
2022/06/27 11:32:08;;;;;;;7.00;2.13;;;27.70;99.90;;;;;;4971893;28;20388;-69
2022/06/27 11:34:36;;;;;;;3.97;1.70;;;27.70;99.90;;;;;;4971039;28;20424;-69
2022/06/27 11:37:11;;;;;;;6.53;1.93;;;27.60;99.90;;;;;;4970473;28;20460;-69
2022/06/27 11:39:36;;;;;;;4.00;2.03;;;27.70;99.90;;;;;;4970395;28;20470;-69
2022/06/27 11:42:09;;;;;;;4.70;1.93;;;27.70;99.90;;;;;;4966561;28;20424;-68
2022/06/27 11:44:55;;;;;;;4.80;2.53;;;27.50;99.90;;;;;;4951455;28;20251;-66
2022/06/27 11:47:27;;;;;;;9.63;2.83;;;27.70;99.90;;;;;;4969916;28;20524;-68
2022/06/27 11:50:02;;;;;;;2.00;1.80;;;27.60;99.90;;;;;;4969773;28;20495;-67
2022/06/27 11:52:42;;;;;;;15.63;3.00;;;27.50;99.90;;;;;;4970371;28;20498;-68
2022/06/27 11:55:10;;;;;;;9.77;3.00;;;27.20;99.90;;;;;;4976170;28;20982;-67
2022/06/27 11:57:42;;;;;;;7.80;2.20;;;27.30;99.90;;;;;;4970903;28;20435;-67
2022/06/27 12:00:19;;;;;;;7.60;3.13;;;27.30;99.90;;;;;;4969596;28;20416;-69
2022/06/27 12:02:45;;;;;;;7.77;2.27;;;27.30;99.90;;;;;;4970162;28;20412;-68
2022/06/27 12:05:18;;;;;;;5.73;2.20;;;27.00;99.90;;;;;;4969664;28;20452;-67
2022/06/27 12:07:56;;;;;;;14.40;3.20;;;27.20;99.90;;;;;;4970064;28;20686;-68
2022/06/27 12:10:39;;;;;;;14.37;3.60;;;27.30;99.90;;;;;;4970052;28;20492;-68
2022/06/27 12:13:08;;;;;;;4.43;2.70;;;27.30;99.90;;;;;;4970598;28;20405;-68
2022/06/27 12:15:35;;;;;;;1.97;1.70;;;27.20;99.90;;;;;;4970676;28;20424;-67
2022/06/27 12:18:02;;;;;;;8.23;2.87;;;27.10;99.90;;;;;;4977435;28;20431;-67
2022/06/27 12:20:30;;;;;;;5.27;2.07;;;27.30;99.90;;;;;;4989145;28;20511;-68
2022/06/27 12:22:56;;;;;;;4.00;2.10;;;26.90;99.90;;;;;;4989530;28;20421;-67
2022/06/27 12:25:22;;;;;;;2.50;2.30;;;26.90;99.90;;;;;;4989406;28;20530;-67
2022/06/27 12:27:48;;;;;;;17.73;3.57;;;26.60;99.90;;;;;;4988497;28;20188;-67
2022/06/27 12:30:15;;;;;;;3.90;2.50;;;26.70;99.90;;;;;;4971216;28;20678;-67
2022/06/27 12:32:41;;;;;;;13.30;3.10;;;26.10;99.90;;;;;;4969853;28;20503;-67
2022/06/27 12:35:07;;;;;;;5.43;2.93;;;26.20;99.90;;;;;;4969821;28;20478;-67
2022/06/27 12:37:37;;;;;;;6.80;2.80;;;26.60;99.90;;;;;;4969804;28;20897;-68
2022/06/27 12:40:05;;;;;;;8.10;2.90;;;27.00;99.90;;;;;;4969315;28;20412;-68
2022/06/27 12:42:30;;;;;;;2.87;2.30;;;27.10;99.90;;;;;;4970459;28;20413;-68
2022/06/27 12:44:56;;;;;;;9.93;3.90;;;27.00;99.90;;;;;;4971529;28;20674;-67
2022/06/27 12:47:22;;;;;;;4.83;1.93;;;26.70;99.90;;;;;;4971384;28;20181;-69
2022/06/27 12:49:47;;;;;;;4.43;2.60;;;26.90;99.90;;;;;;4974424;28;20173;-69
2022/06/27 12:52:13;;;;;;;5.03;2.13;;;26.90;99.90;;;;;;4974474;28;20631;-69
2022/06/27 12:54:39;;;;;;;7.70;2.40;;;26.80;99.90;;;;;;4974014;28;20170;-69
2022/06/27 12:57:06;;;;;;;24.47;4.07;;;26.80;99.90;;;;;;4973730;28;20450;-69
2022/06/27 12:59:33;;;;;;;10.33;2.40;;;27.10;99.90;;;;;;4973752;28;20648;-69
2022/06/27 13:01:59;;;;;;;8.50;2.80;;;27.10;99.90;;;;;;4974663;28;20425;-68